Alva, Oklahoma
Current Conditions -  °F | °C
As of 12:10 PM on Thursday 23 Oct 2014 (Local Time) from KAVK Reporting Station
Overcast Overcast  
Wind Chill: 68°   Ceiling: 4300
Heat Index: 68°   Visibility: 10mi
Dew Point: 61°   Wind: 9mph
Humidity: 78%   Direction: 250°WSW
Pressure: 30.11"   Gusts: NA
Location:  36.8°N, 98.67°W
Report Text: KAVK 231710Z AUTO 25008KT 10SM OVC043 20/16 A3011 RMK AO2
Loading
Personal Weather Stations






























Interactive Weather Map New forecast layout! Learn more

10-Day Weather Forecast

Advertisements
Track Severe Weather on mobile